createdAt,value
2022-07-26T00:00:16.935Z,22.70
2022-07-26T00:02:47.341Z,22.70
2022-07-26T00:05:15.627Z,22.70
2022-07-26T00:07:42.986Z,22.70
2022-07-26T00:10:10.421Z,22.70
2022-07-26T00:12:40.336Z,22.70
2022-07-26T00:15:11.185Z,22.70
2022-07-26T00:17:39.669Z,22.70
2022-07-26T00:20:27.707Z,22.70
2022-07-26T00:22:55.286Z,22.60
2022-07-26T00:25:23.400Z,22.60
2022-07-26T00:27:57.878Z,22.60
2022-07-26T00:30:25.443Z,22.60
2022-07-26T00:32:55.511Z,22.50
2022-07-26T00:35:23.199Z,22.50
2022-07-26T00:37:50.363Z,22.50
2022-07-26T00:40:18.109Z,22.40
2022-07-26T00:42:45.274Z,22.40
2022-07-26T00:45:13.178Z,22.30
2022-07-26T00:47:41.048Z,22.30
2022-07-26T00:50:14.281Z,22.30
2022-07-26T00:52:50.950Z,22.20
2022-07-26T00:55:18.635Z,22.20
2022-07-26T00:57:45.870Z,22.20
2022-07-26T01:00:18.193Z,22.20
2022-07-26T01:02:45.803Z,22.20
2022-07-26T01:05:13.768Z,22.20
2022-07-26T01:07:41.280Z,22.10
2022-07-26T01:10:12.830Z,22.10
2022-07-26T01:12:44.440Z,22.10
2022-07-26T01:15:14.519Z,22.00
2022-07-26T01:17:42.287Z,22.00
2022-07-26T01:20:12.166Z,21.90
2022-07-26T01:22:39.913Z,21.90
2022-07-26T01:25:07.946Z,21.90
2022-07-26T01:27:39.102Z,21.80
2022-07-26T01:30:10.668Z,21.80
2022-07-26T01:32:37.679Z,21.70
2022-07-26T01:35:06.797Z,21.70
2022-07-26T01:37:33.764Z,21.70
2022-07-26T01:40:00.717Z,21.70
2022-07-26T01:42:27.645Z,21.70
2022-07-26T01:44:54.636Z,21.70
2022-07-26T01:47:21.637Z,21.60
2022-07-26T01:49:48.558Z,21.60
2022-07-26T01:52:15.546Z,21.60
2022-07-26T01:54:42.509Z,21.60
2022-07-26T01:57:09.479Z,21.60
2022-07-26T01:59:38.174Z,21.60
2022-07-26T02:02:05.299Z,21.50
2022-07-26T02:04:50.934Z,21.50
2022-07-26T02:07:17.986Z,21.50
2022-07-26T02:09:45.009Z,21.50
2022-07-26T02:12:13.686Z,21.50
2022-07-26T02:14:40.741Z,21.40
2022-07-26T02:17:08.070Z,21.40
2022-07-26T02:19:35.449Z,21.40
2022-07-26T02:22:02.892Z,21.40
2022-07-26T02:24:30.034Z,21.40
2022-07-26T02:26:59.431Z,21.40
2022-07-26T02:29:28.289Z,21.40
2022-07-26T02:31:56.176Z,21.30
2022-07-26T02:34:23.370Z,21.30
2022-07-26T02:36:50.866Z,21.30
2022-07-26T02:39:17.897Z,21.30
2022-07-26T02:41:45.424Z,21.20
2022-07-26T02:44:12.458Z,21.30
2022-07-26T02:46:39.537Z,21.20
2022-07-26T02:49:06.624Z,21.20
2022-07-26T02:51:33.613Z,21.20
2022-07-26T02:54:00.600Z,21.20
2022-07-26T02:56:27.752Z,21.20
2022-07-26T02:58:54.824Z,21.20
2022-07-26T03:01:22.454Z,21.10
2022-07-26T03:03:51.096Z,21.10
2022-07-26T03:06:19.605Z,21.10
2022-07-26T03:08:48.174Z,21.10
2022-07-26T03:11:15.777Z,21.10
2022-07-26T03:13:42.702Z,21.10
2022-07-26T03:16:10.846Z,21.10
2022-07-26T03:18:40.393Z,21.10
2022-07-26T03:21:07.834Z,21.10
2022-07-26T03:23:34.989Z,21.10
2022-07-26T03:26:03.521Z,21.10
2022-07-26T03:28:35.108Z,21.00
2022-07-26T03:31:02.938Z,21.00
2022-07-26T03:33:30.870Z,21.00
2022-07-26T03:35:57.929Z,21.00
2022-07-26T03:38:25.063Z,21.00
2022-07-26T03:40:52.828Z,21.00
2022-07-26T03:43:22.946Z,21.00
2022-07-26T03:45:51.240Z,21.00
2022-07-26T03:48:22.104Z,20.90
2022-07-26T03:50:49.354Z,20.90
2022-07-26T03:53:16.299Z,20.90
2022-07-26T03:56:01.502Z,20.90
2022-07-26T03:58:28.582Z,20.80
2022-07-26T04:00:55.431Z,20.80
2022-07-26T04:03:22.636Z,20.80
2022-07-26T04:05:49.540Z,20.80
2022-07-26T04:08:17.000Z,20.70
2022-07-26T04:10:51.063Z,20.70
2022-07-26T04:13:19.833Z,20.60
2022-07-26T04:15:47.496Z,20.60
2022-07-26T04:18:14.466Z,20.60
2022-07-26T04:20:42.145Z,20.60
2022-07-26T04:23:11.136Z,20.60
2022-07-26T04:25:41.559Z,20.50
2022-07-26T04:28:10.254Z,20.50
2022-07-26T04:30:40.897Z,20.50
2022-07-26T04:33:08.261Z,20.50
2022-07-26T04:35:36.013Z,20.60
2022-07-26T04:38:04.123Z,20.60
2022-07-26T04:40:33.560Z,20.60
2022-07-26T04:43:02.072Z,20.60
2022-07-26T04:45:29.996Z,20.60
2022-07-26T04:47:57.702Z,20.60
2022-07-26T04:50:27.966Z,20.60
2022-07-26T04:52:55.229Z,20.70
2022-07-26T04:55:23.586Z,20.70
2022-07-26T04:57:51.454Z,20.70
2022-07-26T05:00:24.244Z,20.70
2022-07-26T05:02:55.747Z,20.70
2022-07-26T05:05:25.159Z,20.80
2022-07-26T05:08:00.117Z,20.80
2022-07-26T05:10:36.963Z,20.80
2022-07-26T05:13:06.386Z,20.80
2022-07-26T05:15:38.801Z,20.90
2022-07-26T05:18:13.669Z,20.90
2022-07-26T05:20:41.162Z,20.90
2022-07-26T05:23:08.175Z,21.00
2022-07-26T05:25:38.135Z,21.00
2022-07-26T05:28:05.530Z,21.00
2022-07-26T05:30:32.494Z,21.10
2022-07-26T05:32:59.529Z,21.10
2022-07-26T05:35:26.408Z,21.10
2022-07-26T05:37:53.286Z,21.10
2022-07-26T05:40:20.649Z,21.20
2022-07-26T05:42:47.583Z,21.20
2022-07-26T05:45:14.660Z,21.20
2022-07-26T05:47:41.588Z,21.20
2022-07-26T05:50:09.233Z,21.20
2022-07-26T05:52:36.325Z,21.30
2022-07-26T05:55:03.351Z,21.30
2022-07-26T05:57:30.294Z,21.30
2022-07-26T05:59:57.470Z,21.30
2022-07-26T06:02:24.806Z,21.40
2022-07-26T06:04:51.840Z,21.40
2022-07-26T06:07:18.840Z,21.40
2022-07-26T06:09:45.766Z,21.40
2022-07-26T06:12:12.719Z,21.40
2022-07-26T06:14:39.641Z,21.50
2022-07-26T06:17:06.645Z,21.50
2022-07-26T06:19:33.906Z,21.50
2022-07-26T06:22:01.282Z,21.50
2022-07-26T06:24:28.307Z,21.50
2022-07-26T06:26:58.200Z,21.60
2022-07-26T06:29:32.719Z,21.50
2022-07-26T06:32:00.063Z,21.50
2022-07-26T06:34:27.356Z,21.50
2022-07-26T06:36:54.458Z,21.60
2022-07-26T06:39:21.453Z,21.60
2022-07-26T06:41:48.376Z,21.60
2022-07-26T06:44:18.135Z,21.60
2022-07-26T06:46:45.062Z,21.60
2022-07-26T06:49:13.177Z,21.60
2022-07-26T06:51:40.212Z,21.70
2022-07-26T06:54:07.554Z,21.70
2022-07-26T06:56:34.689Z,21.70
2022-07-26T06:59:05.080Z,21.70
2022-07-26T07:01:55.228Z,21.70
2022-07-26T07:04:21.538Z,21.80
2022-07-26T07:06:48.467Z,21.80
2022-07-26T07:09:16.540Z,21.80
2022-07-26T07:11:44.327Z,21.80
2022-07-26T07:14:11.599Z,21.80
2022-07-26T07:16:38.718Z,21.80
2022-07-26T07:19:05.768Z,21.80
2022-07-26T07:21:33.783Z,21.90
2022-07-26T07:24:00.833Z,21.90
2022-07-26T07:26:29.286Z,21.90
2022-07-26T07:28:56.675Z,21.90
2022-07-26T07:31:30.104Z,21.90
2022-07-26T07:33:57.881Z,22.00
2022-07-26T07:36:24.924Z,22.00
2022-07-26T07:38:51.939Z,22.00
2022-07-26T07:41:19.039Z,22.00
2022-07-26T07:43:46.292Z,22.00
2022-07-26T07:46:14.193Z,22.00
2022-07-26T07:48:47.113Z,22.00
2022-07-26T07:51:14.578Z,22.00
2022-07-26T07:53:41.541Z,22.10
2022-07-26T07:56:08.552Z,22.10
2022-07-26T07:58:35.545Z,22.20
2022-07-26T08:01:02.885Z,22.20
2022-07-26T08:03:38.468Z,22.30
2022-07-26T08:06:09.147Z,22.30
2022-07-26T08:08:37.423Z,22.40
2022-07-26T08:11:07.842Z,22.40
2022-07-26T08:13:35.179Z,22.50
2022-07-26T08:16:02.083Z,22.50
2022-07-26T08:18:29.193Z,22.50
2022-07-26T08:20:57.008Z,22.60
2022-07-26T08:23:24.124Z,22.60
2022-07-26T08:26:03.245Z,22.60
2022-07-26T08:28:55.105Z,22.60
2022-07-26T08:31:21.074Z,22.60
2022-07-26T08:33:48.852Z,22.70
2022-07-26T08:36:17.766Z,22.80
2022-07-26T08:38:47.568Z,22.80
2022-07-26T08:41:17.419Z,22.90
2022-07-26T08:43:51.872Z,22.90
2022-07-26T08:46:25.917Z,23.00
2022-07-26T08:48:57.772Z,23.00
2022-07-26T08:51:26.560Z,23.10
2022-07-26T08:54:05.232Z,23.10
2022-07-26T08:56:42.608Z,23.20
2022-07-26T08:59:20.964Z,23.30
2022-07-26T09:02:06.495Z,23.40
2022-07-26T09:04:44.722Z,23.50
2022-07-26T09:07:17.922Z,23.60
2022-07-26T09:10:09.478Z,23.60
2022-07-26T09:12:38.056Z,23.70
2022-07-26T09:15:16.771Z,23.80
2022-07-26T09:17:47.845Z,23.90
2022-07-26T09:20:28.586Z,24.00
2022-07-26T09:23:05.165Z,24.10
2022-07-26T09:25:39.421Z,24.20
2022-07-26T09:28:30.248Z,24.30
2022-07-26T09:31:05.921Z,24.40
2022-07-26T09:33:51.144Z,24.40
2022-07-26T09:36:19.114Z,24.50
2022-07-26T09:38:51.239Z,24.50
2022-07-26T09:41:28.368Z,24.50
2022-07-26T09:44:02.845Z,24.50
2022-07-26T09:46:32.355Z,24.50
2022-07-26T09:49:21.087Z,24.40
2022-07-26T09:51:58.106Z,24.40
2022-07-26T09:54:33.426Z,24.30
2022-07-26T09:57:01.574Z,24.40
2022-07-26T09:59:29.938Z,24.30
2022-07-26T10:01:59.750Z,24.30
2022-07-26T10:04:27.248Z,24.40
2022-07-26T10:06:58.106Z,24.30
2022-07-26T10:09:36.363Z,24.40
2022-07-26T10:12:08.972Z,24.40
2022-07-26T10:14:40.576Z,24.50
2022-07-26T10:17:31.786Z,24.70
2022-07-26T10:20:03.620Z,24.90
2022-07-26T10:22:41.320Z,25.00
2022-07-26T10:25:17.317Z,25.10
2022-07-26T10:27:57.907Z,25.10
2022-07-26T10:30:34.424Z,25.20
2022-07-26T10:33:10.053Z,25.30
2022-07-26T10:35:44.142Z,25.40
2022-07-26T10:38:14.498Z,25.40
2022-07-26T10:40:59.813Z,25.50
2022-07-26T10:43:43.488Z,25.70
2022-07-26T10:46:13.151Z,25.80
2022-07-26T10:49:04.192Z,25.90
2022-07-26T10:51:37.581Z,26.10
2022-07-26T10:54:07.704Z,26.20
2022-07-26T10:56:35.672Z,26.40
2022-07-26T10:59:04.877Z,26.50
2022-07-26T11:01:43.151Z,26.60
2022-07-26T11:04:21.315Z,26.70
2022-07-26T11:06:48.936Z,26.80
2022-07-26T11:09:18.636Z,26.90
2022-07-26T11:11:48.501Z,26.90
2022-07-26T11:14:18.098Z,26.90
2022-07-26T11:16:50.319Z,27.00
2022-07-26T11:19:27.456Z,27.10
2022-07-26T11:22:00.149Z,27.20
2022-07-26T11:24:28.485Z,27.30
2022-07-26T11:26:55.759Z,27.40
2022-07-26T11:29:38.923Z,27.20
2022-07-26T11:32:19.314Z,27.50
2022-07-26T11:34:47.982Z,27.60
2022-07-26T11:37:15.181Z,27.70
2022-07-26T11:39:42.108Z,27.80
2022-07-26T11:42:13.543Z,27.90
2022-07-26T11:44:45.212Z,28.00
2022-07-26T11:47:25.298Z,28.10
2022-07-26T11:50:13.882Z,28.10
2022-07-26T11:52:41.911Z,28.20
2022-07-26T11:55:09.300Z,28.30
2022-07-26T11:57:36.319Z,28.30
2022-07-26T12:00:05.130Z,28.40
2022-07-26T12:02:41.399Z,28.40
2022-07-26T12:05:16.609Z,28.30
2022-07-26T12:08:04.197Z,28.20
2022-07-26T12:10:31.667Z,28.20
2022-07-26T12:13:16.102Z,28.10
2022-07-26T12:15:53.539Z,28.10
2022-07-26T12:18:31.245Z,27.90
2022-07-26T12:21:07.107Z,27.90
2022-07-26T12:23:49.882Z,27.70
2022-07-26T12:26:30.562Z,27.60
2022-07-26T12:28:59.770Z,27.60
2022-07-26T12:31:30.972Z,27.50
2022-07-26T12:33:58.564Z,27.50
2022-07-26T12:36:29.557Z,27.30
2022-07-26T12:38:59.555Z,27.30
2022-07-26T12:41:39.049Z,27.20
2022-07-26T12:44:11.511Z,27.10
2022-07-26T12:46:39.052Z,27.00
2022-07-26T12:49:06.163Z,27.00
2022-07-26T12:51:34.018Z,27.00
2022-07-26T12:54:00.969Z,26.90
2022-07-26T12:56:27.909Z,26.90
2022-07-26T12:59:00.902Z,26.90
2022-07-26T13:01:33.283Z,26.80
2022-07-26T13:04:00.860Z,26.90
2022-07-26T13:06:28.107Z,26.90
2022-07-26T13:08:56.630Z,26.90
2022-07-26T13:11:23.812Z,26.90
2022-07-26T13:13:50.814Z,26.90
2022-07-26T13:16:17.760Z,26.90
2022-07-26T13:18:47.277Z,26.90
2022-07-26T13:21:14.296Z,26.80
2022-07-26T13:23:41.450Z,26.80
2022-07-26T13:26:09.258Z,26.70
2022-07-26T13:28:37.840Z,26.70
2022-07-26T13:31:04.968Z,26.60
2022-07-26T13:33:33.500Z,26.60
2022-07-26T13:36:00.456Z,26.50
2022-07-26T13:38:28.322Z,26.50
2022-07-26T13:40:56.392Z,26.50
2022-07-26T13:43:23.695Z,26.50
2022-07-26T13:45:50.940Z,26.50
2022-07-26T13:48:17.849Z,26.50
2022-07-26T13:50:45.041Z,26.50
2022-07-26T13:53:12.189Z,26.40
2022-07-26T13:55:39.100Z,26.40
2022-07-26T13:58:10.007Z,26.40
2022-07-26T14:00:40.780Z,26.30
2022-07-26T14:03:08.362Z,26.30
2022-07-26T14:05:35.615Z,26.30
2022-07-26T14:08:02.865Z,26.30
2022-07-26T14:10:29.823Z,26.20
2022-07-26T14:12:57.079Z,26.20
2022-07-26T14:15:24.297Z,26.20
2022-07-26T14:17:52.575Z,26.10
2022-07-26T14:20:21.256Z,26.10
2022-07-26T14:22:53.658Z,26.10
2022-07-26T14:25:27.382Z,26.00
2022-07-26T14:27:55.512Z,26.00
2022-07-26T14:30:22.671Z,26.00
2022-07-26T14:32:50.716Z,26.10
2022-07-26T14:35:17.705Z,26.20
2022-07-26T14:37:45.812Z,26.30
2022-07-26T14:40:16.002Z,26.30
2022-07-26T14:42:43.726Z,26.40
2022-07-26T14:45:11.657Z,26.50
2022-07-26T14:47:38.845Z,26.50
2022-07-26T14:50:08.490Z,26.60
2022-07-26T14:52:46.095Z,26.70
2022-07-26T14:55:14.945Z,26.80
2022-07-26T14:57:42.644Z,26.80
2022-07-26T15:00:14.218Z,26.80
2022-07-26T15:02:44.990Z,26.90
2022-07-26T15:05:14.455Z,26.90
2022-07-26T15:07:42.895Z,27.00
2022-07-26T15:10:12.858Z,27.00
2022-07-26T15:12:41.000Z,27.00
2022-07-26T15:15:09.326Z,27.00
2022-07-26T15:17:37.470Z,27.00
2022-07-26T15:20:05.702Z,27.00
2022-07-26T15:22:32.682Z,27.00
2022-07-26T15:25:00.217Z,27.00
2022-07-26T15:27:27.218Z,27.10
2022-07-26T15:29:57.114Z,27.10
2022-07-26T15:32:28.005Z,27.10
2022-07-26T15:34:54.911Z,27.10
2022-07-26T15:37:21.868Z,27.10
2022-07-26T15:39:48.740Z,27.10
2022-07-26T15:42:19.288Z,27.10
2022-07-26T15:44:48.487Z,27.00
2022-07-26T15:47:36.918Z,27.00
2022-07-26T15:50:07.316Z,27.00
2022-07-26T15:52:38.721Z,26.90
2022-07-26T15:55:08.327Z,26.90
2022-07-26T15:57:36.794Z,26.80
2022-07-26T16:00:11.380Z,26.80
2022-07-26T16:02:40.933Z,26.80
2022-07-26T16:05:10.185Z,26.80
2022-07-26T16:07:38.554Z,26.80
2022-07-26T16:10:06.167Z,26.80
2022-07-26T16:12:34.143Z,26.80
2022-07-26T16:15:01.061Z,26.80
2022-07-26T16:17:27.969Z,26.80
2022-07-26T16:19:54.940Z,26.80
2022-07-26T16:22:21.946Z,26.80
2022-07-26T16:24:49.021Z,26.80
2022-07-26T16:27:16.867Z,26.70
2022-07-26T16:29:43.748Z,26.70
2022-07-26T16:32:12.691Z,26.70
2022-07-26T16:34:39.704Z,26.70
2022-07-26T16:37:06.667Z,26.70
2022-07-26T16:39:33.524Z,26.60
2022-07-26T16:42:06.845Z,26.60
2022-07-26T16:44:35.992Z,26.50
2022-07-26T16:47:04.142Z,26.40
2022-07-26T16:49:31.528Z,26.40
2022-07-26T16:51:58.904Z,26.30
2022-07-26T16:54:25.914Z,26.30
2022-07-26T16:56:52.862Z,26.20
2022-07-26T16:59:19.899Z,26.20
2022-07-26T17:01:46.879Z,26.10
2022-07-26T17:04:13.972Z,26.00
2022-07-26T17:06:40.940Z,25.90
2022-07-26T17:09:15.486Z,25.80
2022-07-26T17:11:42.938Z,25.70
2022-07-26T17:14:10.031Z,25.60
2022-07-26T17:16:37.457Z,25.50
2022-07-26T17:19:04.475Z,25.40
2022-07-26T17:21:31.502Z,25.30
2022-07-26T17:24:01.599Z,25.20
2022-07-26T17:26:32.887Z,25.20
2022-07-26T17:29:06.156Z,25.10
2022-07-26T17:31:33.553Z,25.10
2022-07-26T17:34:00.516Z,25.00
2022-07-26T17:36:30.655Z,25.00
2022-07-26T17:38:58.316Z,25.00
2022-07-26T17:41:32.972Z,24.90
2022-07-26T17:44:03.009Z,24.90
2022-07-26T17:46:32.756Z,24.90
2022-07-26T17:49:00.602Z,24.90
2022-07-26T17:51:27.541Z,24.90
2022-07-26T17:53:54.413Z,24.90
2022-07-26T17:56:21.842Z,24.90
2022-07-26T17:58:48.774Z,24.90
2022-07-26T18:01:17.889Z,24.90
2022-07-26T18:03:44.942Z,24.90
2022-07-26T18:06:12.060Z,24.90
2022-07-26T18:08:39.070Z,24.90
2022-07-26T18:11:07.920Z,24.80
2022-07-26T18:13:35.718Z,24.80
2022-07-26T18:16:06.003Z,24.80
2022-07-26T18:18:33.524Z,24.70
2022-07-26T18:21:00.448Z,24.70
2022-07-26T18:23:27.351Z,24.60
2022-07-26T18:25:54.341Z,24.60
2022-07-26T18:28:24.613Z,24.50
2022-07-26T18:30:51.940Z,24.40
2022-07-26T18:33:19.350Z,24.30
2022-07-26T18:35:46.311Z,24.30
2022-07-26T18:38:13.483Z,24.20
2022-07-26T18:40:41.005Z,24.10
2022-07-26T18:43:08.172Z,24.10
2022-07-26T18:45:35.367Z,24.00
2022-07-26T18:48:02.293Z,24.00
2022-07-26T18:50:31.122Z,23.90
2022-07-26T18:53:00.210Z,23.90
2022-07-26T18:55:27.620Z,23.90
2022-07-26T18:57:54.526Z,23.80
2022-07-26T19:00:22.953Z,23.80
2022-07-26T19:02:51.939Z,23.80
2022-07-26T19:05:20.336Z,23.70
2022-07-26T19:07:47.336Z,23.70
2022-07-26T19:10:14.515Z,23.60
2022-07-26T19:12:42.217Z,23.60
2022-07-26T19:15:09.940Z,23.60
2022-07-26T19:17:37.447Z,23.60
2022-07-26T19:20:07.105Z,23.50
2022-07-26T19:22:34.533Z,23.50
2022-07-26T19:25:01.855Z,23.50
2022-07-26T19:27:28.884Z,23.40
2022-07-26T19:29:56.994Z,23.40
2022-07-26T19:32:27.094Z,23.30
2022-07-26T19:34:56.586Z,23.30
2022-07-26T19:37:23.475Z,23.20
2022-07-26T19:39:53.215Z,23.20
2022-07-26T19:42:20.302Z,23.10
2022-07-26T19:44:47.693Z,23.10
2022-07-26T19:47:14.980Z,23.10
2022-07-26T19:49:42.030Z,23.00
2022-07-26T19:52:11.665Z,23.00
2022-07-26T19:54:39.277Z,22.90
2022-07-26T19:57:08.134Z,22.90
2022-07-26T19:59:35.058Z,22.90
2022-07-26T20:02:02.686Z,22.80
2022-07-26T20:04:29.912Z,22.80
2022-07-26T20:06:56.913Z,22.80
2022-07-26T20:09:24.157Z,22.80
2022-07-26T20:11:51.225Z,22.70
2022-07-26T20:14:20.141Z,22.70
2022-07-26T20:16:51.680Z,22.70
2022-07-26T20:19:21.095Z,22.60
2022-07-26T20:21:48.044Z,22.60
2022-07-26T20:24:14.958Z,22.50
2022-07-26T20:26:42.673Z,22.50
2022-07-26T20:29:11.399Z,22.40
2022-07-26T20:31:38.995Z,22.40
2022-07-26T20:34:05.891Z,22.40
2022-07-26T20:36:32.770Z,22.30
2022-07-26T20:39:01.157Z,22.30
2022-07-26T20:41:28.173Z,22.30
2022-07-26T20:44:01.269Z,22.20
2022-07-26T20:46:28.295Z,22.20
2022-07-26T20:48:55.482Z,22.20
2022-07-26T20:51:22.599Z,22.10
2022-07-26T20:53:49.914Z,22.10
2022-07-26T20:56:16.879Z,22.00
2022-07-26T20:58:43.806Z,22.00
2022-07-26T21:01:13.037Z,22.00
2022-07-26T21:03:40.114Z,21.90
2022-07-26T21:06:09.273Z,21.90
2022-07-26T21:08:36.398Z,21.80
2022-07-26T21:11:03.747Z,21.80
2022-07-26T21:13:33.998Z,21.70
2022-07-26T21:16:00.957Z,21.70
2022-07-26T21:18:29.806Z,21.60
2022-07-26T21:20:57.545Z,21.60
2022-07-26T21:23:24.699Z,21.60
2022-07-26T21:26:00.483Z,21.50
2022-07-26T21:28:28.686Z,21.50
2022-07-26T21:30:55.972Z,21.40
2022-07-26T21:33:23.008Z,21.40
2022-07-26T21:35:49.981Z,21.30
2022-07-26T21:38:17.075Z,21.30
2022-07-26T21:40:44.438Z,21.30
2022-07-26T21:43:11.565Z,21.20
2022-07-26T21:45:38.601Z,21.20
2022-07-26T21:48:06.155Z,21.20
2022-07-26T21:50:33.319Z,21.10
2022-07-26T21:53:01.174Z,21.10
2022-07-26T21:55:28.605Z,21.10
2022-07-26T21:57:55.520Z,21.00
2022-07-26T22:00:22.605Z,21.00
2022-07-26T22:02:49.557Z,21.00
2022-07-26T22:05:34.854Z,20.90
2022-07-26T22:08:02.663Z,20.90
2022-07-26T22:10:29.573Z,20.90
2022-07-26T22:12:56.494Z,20.80
2022-07-26T22:15:23.487Z,20.80
2022-07-26T22:17:50.685Z,20.70
2022-07-26T22:20:17.602Z,20.70
2022-07-26T22:22:44.504Z,20.70
2022-07-26T22:25:11.607Z,20.70
2022-07-26T22:27:38.745Z,20.60
2022-07-26T22:30:06.690Z,20.60
2022-07-26T22:32:33.537Z,20.50
2022-07-26T22:35:00.432Z,20.50
2022-07-26T22:37:27.597Z,20.50
2022-07-26T22:39:54.537Z,20.40
2022-07-26T22:42:21.542Z,20.40
2022-07-26T22:44:48.447Z,20.40
2022-07-26T22:47:15.419Z,20.40
2022-07-26T22:49:42.429Z,20.30
2022-07-26T22:52:09.434Z,20.30
2022-07-26T22:54:38.927Z,20.30
2022-07-26T22:57:06.087Z,20.30
2022-07-26T22:59:33.127Z,20.30
2022-07-26T23:02:01.001Z,20.30
2022-07-26T23:04:27.966Z,20.20
2022-07-26T23:06:55.058Z,20.20
2022-07-26T23:09:22.376Z,20.20
2022-07-26T23:11:49.359Z,20.20
2022-07-26T23:14:16.396Z,20.20
2022-07-26T23:16:43.365Z,20.20
2022-07-26T23:19:11.329Z,20.20
2022-07-26T23:21:38.439Z,20.20
2022-07-26T23:24:05.636Z,20.20
2022-07-26T23:26:32.751Z,20.20
2022-07-26T23:28:59.809Z,20.20
2022-07-26T23:31:26.813Z,20.20
2022-07-26T23:33:54.761Z,20.10
2022-07-26T23:36:28.213Z,20.10
2022-07-26T23:38:58.064Z,20.10
2022-07-26T23:41:27.147Z,20.10
2022-07-26T23:43:54.882Z,20.10
2022-07-26T23:46:22.762Z,20.10
2022-07-26T23:48:51.120Z,20.10
2022-07-26T23:51:19.310Z,20.10
2022-07-26T23:53:47.123Z,20.10
2022-07-26T23:56:14.193Z,20.10
2022-07-26T23:58:41.431Z,20.10
